HDE weather

Brewster Field
Holdrege, Nebraska, United States

Public forecast

Using degrees Fahrenheit for public forecast. Weather courtesy of forecast.io.

Current aviation weather report (METAR) for Brewster Field

Retrieved 2019/10/23 13:55 UTC (42 minutes ago):

KHDE 231355Z AUTO 31011G17KT 10SM SCT120 09/05 A2989 RMK AO2 T00940046

Closest aviation forecast (TAF) to Brewster Field

Closest forecast is Kearney Regional Airport, 22.3 nm (41.3 km) NE. Retrieved 2019/10/23 12:39 UTC (2 hours ago):

TAF KEAR 231137Z 2312/2412 23011KT P6SM SCT100 BKN200 WS010/32045KT FM231400 28014G18KT P6SM SCT200 FM231700 32018G26KT P6SM FEW100 SCT200 FM240000 36014KT P6SM SCT100